createdAt,value
2017-10-19T00:00:56.774Z,15.77
2017-10-19T00:03:24.282Z,17.70
2017-10-19T00:05:51.845Z,16.90
2017-10-19T00:08:19.381Z,16.67
2017-10-19T00:10:46.894Z,15.27
2017-10-19T00:13:15.204Z,16.33
2017-10-19T00:15:42.711Z,15.90
2017-10-19T00:18:10.238Z,14.80
2017-10-19T00:20:37.774Z,15.83
2017-10-19T00:23:05.293Z,14.90
2017-10-19T00:25:32.841Z,16.33
2017-10-19T00:28:00.422Z,14.30
2017-10-19T00:30:28.726Z,15.50
2017-10-19T00:32:56.384Z,15.67
2017-10-19T00:35:23.958Z,15.87
2017-10-19T00:37:51.471Z,16.17
2017-10-19T00:40:18.998Z,15.60
2017-10-19T00:42:46.543Z,14.70
2017-10-19T00:45:14.087Z,13.93
2017-10-19T00:47:41.599Z,14.97
2017-10-19T00:50:09.914Z,14.30
2017-10-19T00:52:37.453Z,14.80
2017-10-19T00:55:04.982Z,13.90
2017-10-19T00:57:32.539Z,15.13
2017-10-19T01:00:00.074Z,13.80
2017-10-19T01:02:27.579Z,15.60
2017-10-19T01:04:55.107Z,14.57
2017-10-19T01:07:22.655Z,15.27
2017-10-19T01:09:50.627Z,14.23
2017-10-19T01:12:18.595Z,14.83
2017-10-19T01:33:25.874Z,13.60
2017-10-19T01:35:54.187Z,14.70
2017-10-19T01:38:21.711Z,14.03
2017-10-19T07:21:26.919Z,18.30
2017-10-19T07:52:10.712Z,15.60
2017-10-19T08:09:12.827Z,15.20
2017-10-19T08:11:40.357Z,15.93
2017-10-19T08:14:08.654Z,13.07
2017-10-19T08:16:36.205Z,12.77
2017-10-19T08:19:03.738Z,15.33
2017-10-19T08:21:31.267Z,13.87
2017-10-19T08:23:58.845Z,15.43
2017-10-19T08:26:26.374Z,14.83
2017-10-19T08:28:53.905Z,13.90
2017-10-19T08:31:21.498Z,15.37
2017-10-19T08:33:49.026Z,14.87
2017-10-19T08:36:16.605Z,16.40
2017-10-19T08:38:44.154Z,16.40
2017-10-19T08:41:11.689Z,15.13
2017-10-19T08:43:40.026Z,17.63
2017-10-19T08:46:07.595Z,16.60
2017-10-19T08:48:35.125Z,17.37
2017-10-19T08:51:02.662Z,19.63
2017-10-19T08:53:30.218Z,17.33
2017-10-19T08:55:57.770Z,19.67
2017-10-19T08:58:26.081Z,20.27
2017-10-19T09:00:53.650Z,19.80
2017-10-19T09:03:21.220Z,19.37
2017-10-19T09:05:48.778Z,22.63
2017-10-19T09:08:16.326Z,22.50
2017-10-19T09:10:43.858Z,22.80
2017-10-19T09:13:11.428Z,22.47
2017-10-19T09:15:38.993Z,23.67
2017-10-19T09:18:06.678Z,21.63
2017-10-19T09:20:34.226Z,18.20
2017-10-19T09:23:01.790Z,17.47
2017-10-19T09:25:29.322Z,17.93
2017-10-19T09:27:56.880Z,16.70
2017-10-19T09:30:24.447Z,16.77
2017-10-19T09:32:52.001Z,15.80
2017-10-19T09:35:19.539Z,14.67
2017-10-19T09:37:47.880Z,14.77
2017-10-19T09:40:15.419Z,16.17
2017-10-19T09:42:42.955Z,15.20
2017-10-19T09:45:10.538Z,14.43
2017-10-19T09:47:38.079Z,14.43
2017-10-19T09:50:05.606Z,14.20
2017-10-19T09:52:34.159Z,14.87
2017-10-19T09:55:01.686Z,13.67
2017-10-19T09:57:29.210Z,15.27
2017-10-19T09:59:57.547Z,14.47
2017-10-19T10:02:25.078Z,14.30
2017-10-19T10:04:52.611Z,14.67
2017-10-19T10:07:20.945Z,15.20
2017-10-19T10:09:48.477Z,17.07
2017-10-19T10:12:16.007Z,15.50
2017-10-19T10:14:44.347Z,18.30
2017-10-19T10:17:11.874Z,29.27
2017-10-19T10:19:39.398Z,17.53
2017-10-19T10:22:06.945Z,16.40
2017-10-19T10:24:34.519Z,17.13
2017-10-19T10:27:02.046Z,17.33
2017-10-19T10:29:29.606Z,17.27
2017-10-19T10:31:57.146Z,17.77
2017-10-19T10:34:24.686Z,17.60
2017-10-19T10:36:52.248Z,17.63
2017-10-19T10:39:19.786Z,17.47
2017-10-19T10:41:48.090Z,17.53
2017-10-19T10:44:15.654Z,17.57
2017-10-19T10:46:43.179Z,17.73
2017-10-19T10:49:10.711Z,18.50
2017-10-19T10:51:38.275Z,17.80
2017-10-19T10:54:05.810Z,17.80
2017-10-19T10:56:33.356Z,18.47
2017-10-19T10:59:01.243Z,19.07
2017-10-19T11:01:28.771Z,17.67
2017-10-19T11:03:56.298Z,16.93
2017-10-19T11:06:23.864Z,17.60
2017-10-19T11:08:52.166Z,16.80
2017-10-19T11:11:19.708Z,17.37
2017-10-19T11:13:48.035Z,18.07
2017-10-19T11:16:15.574Z,17.60
2017-10-19T11:18:43.870Z,16.90
2017-10-19T11:21:11.436Z,17.00
2017-10-19T11:23:38.979Z,17.37
2017-10-19T11:26:06.512Z,31.57
2017-10-19T11:28:34.091Z,26.13
2017-10-19T11:31:01.626Z,21.03
2017-10-19T11:33:29.918Z,20.00
2017-10-19T11:35:57.507Z,20.20
2017-10-19T12:22:35.295Z,20.67
2017-10-19T12:59:02.907Z,21.80
2017-10-19T13:18:33.722Z,24.40
2017-10-19T13:21:01.262Z,24.00
2017-10-19T13:23:28.918Z,22.93
2017-10-19T13:25:57.269Z,24.20
2017-10-19T13:28:24.798Z,24.27
2017-10-19T13:46:58.240Z,25.50
2017-10-19T14:00:47.887Z,24.73
2017-10-19T14:03:15.417Z,26.27
2017-10-19T14:22:58.162Z,26.00
2017-10-19T14:32:07.837Z,23.83
2017-10-19T14:34:36.111Z,25.20
2017-10-19T14:37:03.623Z,24.43
2017-10-19T14:39:31.175Z,24.07
2017-10-19T14:41:58.711Z,24.40
2017-10-19T14:44:26.244Z,23.30
2017-10-19T14:46:53.808Z,24.43
2017-10-19T14:49:21.374Z,22.50
2017-10-19T14:51:49.869Z,23.57
2017-10-19T14:54:17.438Z,24.53
2017-10-19T14:56:44.970Z,24.00
2017-10-19T14:59:12.532Z,24.27
2017-10-19T15:01:40.159Z,25.50
2017-10-19T15:04:08.604Z,25.10
2017-10-19T15:06:36.249Z,23.37
2017-10-19T15:09:03.904Z,23.77
2017-10-19T15:11:31.487Z,23.20
2017-10-19T15:13:59.026Z,23.30
2017-10-19T15:16:26.589Z,24.90
2017-10-19T15:18:54.124Z,24.10
2017-10-19T15:21:22.420Z,22.40
2017-10-19T15:23:50.099Z,22.30
2017-10-19T15:26:17.640Z,22.97
2017-10-19T15:57:24.743Z,19.53
2017-10-19T17:14:45.344Z,18.20
2017-10-19T17:20:45.012Z,18.83
2017-10-19T17:23:12.555Z,19.50
2017-10-19T17:25:40.099Z,18.27
2017-10-19T17:28:07.646Z,19.40
2017-10-19T17:30:35.193Z,17.53
2017-10-19T17:33:02.754Z,16.67
2017-10-19T17:35:30.384Z,19.10
2017-10-19T17:37:57.915Z,18.10
2017-10-19T17:40:25.438Z,17.60
2017-10-19T17:42:53.034Z,17.40
2017-10-19T17:45:20.614Z,18.00
2017-10-19T17:47:48.171Z,18.53
2017-10-19T17:50:15.786Z,17.17
2017-10-19T17:52:43.314Z,17.97
2017-10-19T17:55:10.845Z,17.63
2017-10-19T17:57:38.386Z,16.70
2017-10-19T18:00:05.983Z,16.90
2017-10-19T18:02:34.313Z,17.20
2017-10-19T18:19:51.775Z,17.17
2017-10-19T18:22:19.403Z,16.20
2017-10-19T18:30:29.690Z,16.90
2017-10-19T18:32:57.219Z,18.10
2017-10-19T18:49:00.947Z,17.67
2017-10-19T20:04:21.244Z,24.20
2017-10-19T20:19:22.072Z,27.40
2017-10-19T20:44:34.356Z,27.17
2017-10-19T20:47:01.900Z,25.53
2017-10-19T20:59:54.058Z,28.50
2017-10-19T21:02:22.359Z,30.73
2017-10-19T21:04:49.894Z,32.40
2017-10-19T21:19:49.544Z,32.53
2017-10-19T21:22:17.099Z,29.50
2017-10-19T21:41:34.352Z,34.03
2017-10-19T21:44:01.920Z,31.10
2017-10-19T22:15:55.765Z,29.87
2017-10-19T22:20:34.991Z,29.90
2017-10-19T22:23:02.683Z,28.97
2017-10-19T22:40:53.922Z,26.50
2017-10-19T22:55:57.595Z,25.73
2017-10-19T22:58:25.165Z,27.73
2017-10-19T23:09:37.161Z,24.93
2017-10-19T23:27:14.139Z,24.70
2017-10-19T23:29:42.442Z,24.40
2017-10-19T23:32:09.975Z,23.47
2017-10-19T23:34:39.067Z,24.63
2017-10-19T23:37:07.738Z,23.90
2017-10-19T23:39:35.267Z,23.37
2017-10-19T23:43:31.931Z,21.73
